sensor_id;sensor_type;location;lat;lon;timestamp;pressure;altitude;pressure_sealevel;temperature;humidity
54270;BME280;40181;51.560;13.000;2023-10-08T00:01:49;100778.06;;;16.01;100.00
54270;BME280;40181;51.560;13.000;2023-10-08T00:04:21;100781.53;;;16.15;100.00
54270;BME280;40181;51.560;13.000;2023-10-08T00:06:51;100792.25;;;15.86;100.00
54270;BME280;40181;51.560;13.000;2023-10-08T00:09:20;100801.09;;;15.96;100.00
54270;BME280;40181;51.560;13.000;2023-10-08T00:11:53;100800.22;;;15.81;100.00
54270;BME280;40181;51.560;13.000;2023-10-08T00:14:23;100808.28;;;15.47;100.00
54270;BME280;40181;51.560;13.000;2023-10-08T00:16:53;100794.13;;;15.67;100.00
54270;BME280;40181;51.560;13.000;2023-10-08T00:19:22;100807.47;;;15.21;100.00
54270;BME280;40181;51.560;13.000;2023-10-08T00:21:52;100805.72;;;15.31;100.00
54270;BME280;40181;51.560;13.000;2023-10-08T00:24:30;100811.88;;;15.23;100.00
54270;BME280;40181;51.560;13.000;2023-10-08T00:27:02;100810.16;;;15.04;100.00
54270;BME280;40181;51.560;13.000;2023-10-08T00:29:32;100832.16;;;14.68;100.00
54270;BME280;40181;51.560;13.000;2023-10-08T00:32:04;100844.50;;;14.59;100.00
54270;BME280;40181;51.560;13.000;2023-10-08T00:34:41;100857.66;;;14.41;100.00
54270;BME280;40181;51.560;13.000;2023-10-08T00:37:11;100856.84;;;14.59;100.00
54270;BME280;40181;51.560;13.000;2023-10-08T00:39:42;100857.72;;;14.64;100.00
54270;BME280;40181;51.560;13.000;2023-10-08T00:42:13;100852.41;;;14.55;100.00
54270;BME280;40181;51.560;13.000;2023-10-08T00:44:43;100866.47;;;14.32;100.00
54270;BME280;40181;51.560;13.000;2023-10-08T00:47:16;100876.13;;;14.27;100.00
54270;BME280;40181;51.560;13.000;2023-10-08T00:49:51;100874.31;;;14.15;100.00
54270;BME280;40181;51.560;13.000;2023-10-08T00:52:30;100880.50;;;14.15;100.00
54270;BME280;40181;51.560;13.000;2023-10-08T00:55:06;100886.66;;;14.16;100.00
54270;BME280;40181;51.560;13.000;2023-10-08T00:57:52;100886.53;;;13.91;100.00
54270;BME280;40181;51.560;13.000;2023-10-08T01:00:34;100883.84;;;13.81;100.00
54270;BME280;40181;51.560;13.000;2023-10-08T01:03:07;100878.56;;;13.75;100.00
54270;BME280;40181;51.560;13.000;2023-10-08T01:05:40;100889.94;;;13.66;100.00
54270;BME280;40181;51.560;13.000;2023-10-08T01:08:15;100905.09;;;14.00;100.00
54270;BME280;40181;51.560;13.000;2023-10-08T01:10:48;100907.75;;;14.00;100.00
54270;BME280;40181;51.560;13.000;2023-10-08T01:13:30;100913.03;;;14.02;100.00
54270;BME280;40181;51.560;13.000;2023-10-08T01:16:09;100891.78;;;13.78;100.00
54270;BME280;40181;51.560;13.000;2023-10-08T01:18:39;100885.63;;;13.78;100.00
54270;BME280;40181;51.560;13.000;2023-10-08T01:21:17;100899.72;;;13.83;100.00
54270;BME280;40181;51.560;13.000;2023-10-08T01:24:07;100905.00;;;13.80;100.00
54270;BME280;40181;51.560;13.000;2023-10-08T01:26:42;100926.03;;;13.69;100.00
54270;BME280;40181;51.560;13.000;2023-10-08T01:29:12;100926.19;;;13.92;100.00
54270;BME280;40181;51.560;13.000;2023-10-08T01:31:47;100912.91;;;13.80;100.00
54270;BME280;40181;51.560;13.000;2023-10-08T01:34:18;100904.03;;;13.68;100.00
54270;BME280;40181;51.560;13.000;2023-10-08T01:36:52;100920.81;;;13.77;100.00
54270;BME280;40181;51.560;13.000;2023-10-08T01:39:23;100924.41;;;13.90;100.00
54270;BME280;40181;51.560;13.000;2023-10-08T01:41:52;100937.59;;;13.83;100.00
54270;BME280;40181;51.560;13.000;2023-10-08T01:44:22;100944.47;;;13.61;100.00
54270;BME280;40181;51.560;13.000;2023-10-08T01:46:51;100925.25;;;13.82;100.00
54270;BME280;40181;51.560;13.000;2023-10-08T01:49:22;100940.84;;;13.50;100.00
54270;BME280;40181;51.560;13.000;2023-10-08T01:51:56;100933.81;;;13.49;100.00
54270;BME280;40181;51.560;13.000;2023-10-08T01:54:35;100921.59;;;13.59;100.00
54270;BME280;40181;51.560;13.000;2023-10-08T01:57:04;100939.28;;;13.77;100.00
54270;BME280;40181;51.560;13.000;2023-10-08T01:59:34;100937.38;;;13.51;100.00
54270;BME280;40181;51.560;13.000;2023-10-08T02:02:05;100971.69;;;13.52;100.00
54270;BME280;40181;51.560;13.000;2023-10-08T02:04:35;100980.31;;;13.37;100.00
54270;BME280;40181;51.560;13.000;2023-10-08T02:07:06;100988.13;;;13.26;100.00
54270;BME280;40181;51.560;13.000;2023-10-08T02:09:40;100991.69;;;13.28;100.00
54270;BME280;40181;51.560;13.000;2023-10-08T02:12:10;100991.56;;;13.16;100.00
54270;BME280;40181;51.560;13.000;2023-10-08T02:14:41;101000.56;;;13.38;100.00
54270;BME280;40181;51.560;13.000;2023-10-08T02:17:10;101022.41;;;13.22;100.00
54270;BME280;40181;51.560;13.000;2023-10-08T02:19:39;101016.41;;;13.41;100.00
54270;BME280;40181;51.560;13.000;2023-10-08T02:22:08;101015.31;;;13.14;100.00
54270;BME280;40181;51.560;13.000;2023-10-08T02:24:41;101016.75;;;12.86;100.00
54270;BME280;40181;51.560;13.000;2023-10-08T02:27:10;101015.06;;;12.93;100.00
54270;BME280;40181;51.560;13.000;2023-10-08T02:29:40;101025.72;;;13.05;100.00
54270;BME280;40181;51.560;13.000;2023-10-08T02:32:10;101069.53;;;12.88;100.00
54270;BME280;40181;51.560;13.000;2023-10-08T02:34:39;101069.06;;;12.52;100.00
54270;BME280;40181;51.560;13.000;2023-10-08T02:37:08;101070.66;;;12.40;100.00
54270;BME280;40181;51.560;13.000;2023-10-08T02:39:40;101075.72;;;12.28;100.00
54270;BME280;40181;51.560;13.000;2023-10-08T02:42:11;101074.22;;;12.45;100.00
54270;BME280;40181;51.560;13.000;2023-10-08T02:44:40;101099.91;;;12.59;100.00
54270;BME280;40181;51.560;13.000;2023-10-08T02:47:10;101092.34;;;12.22;100.00
54270;BME280;40181;51.560;13.000;2023-10-08T02:49:42;101101.44;;;12.43;100.00
54270;BME280;40181;51.560;13.000;2023-10-08T02:52:13;101125.03;;;12.35;100.00
54270;BME280;40181;51.560;13.000;2023-10-08T02:54:46;101128.44;;;12.29;100.00
54270;BME280;40181;51.560;13.000;2023-10-08T02:57:18;101108.34;;;12.36;100.00
54270;BME280;40181;51.560;13.000;2023-10-08T02:59:47;101128.63;;;12.42;100.00
54270;BME280;40181;51.560;13.000;2023-10-08T03:02:19;101130.97;;;12.22;100.00
54270;BME280;40181;51.560;13.000;2023-10-08T03:04:49;101117.00;;;12.27;100.00
54270;BME280;40181;51.560;13.000;2023-10-08T03:07:20;101115.53;;;12.47;100.00
54270;BME280;40181;51.560;13.000;2023-10-08T03:10:00;101125.56;;;12.12;100.00
54270;BME280;40181;51.560;13.000;2023-10-08T03:12:31;101140.66;;;12.24;100.00
54270;BME280;40181;51.560;13.000;2023-10-08T03:15:02;101146.00;;;12.29;100.00
54270;BME280;40181;51.560;13.000;2023-10-08T03:17:53;101140.44;;;12.09;100.00
54270;BME280;40181;51.560;13.000;2023-10-08T03:20:23;101147.72;;;12.25;100.00
54270;BME280;40181;51.560;13.000;2023-10-08T03:23:03;101132.69;;;12.20;100.00
54270;BME280;40181;51.560;13.000;2023-10-08T03:25:40;101146.53;;;12.06;100.00
54270;BME280;40181;51.560;13.000;2023-10-08T03:28:11;101152.91;;;12.22;100.00
54270;BME280;40181;51.560;13.000;2023-10-08T03:30:41;101160.97;;;12.31;100.00
54270;BME280;40181;51.560;13.000;2023-10-08T03:33:17;101173.41;;;12.40;100.00
54270;BME280;40181;51.560;13.000;2023-10-08T03:35:52;101165.72;;;12.54;100.00
54270;BME280;40181;51.560;13.000;2023-10-08T03:38:22;101165.91;;;12.10;100.00
54270;BME280;40181;51.560;13.000;2023-10-08T03:41:12;101162.81;;;12.37;100.00
54270;BME280;40181;51.560;13.000;2023-10-08T03:43:46;101169.22;;;12.53;100.00
54270;BME280;40181;51.560;13.000;2023-10-08T03:46:26;101167.59;;;12.62;100.00
54270;BME280;40181;51.560;13.000;2023-10-08T03:48:56;101170.63;;;12.31;100.00
54270;BME280;40181;51.560;13.000;2023-10-08T03:51:30;101173.97;;;12.19;100.00
54270;BME280;40181;51.560;13.000;2023-10-08T03:54:05;101172.66;;;12.49;100.00
54270;BME280;40181;51.560;13.000;2023-10-08T03:56:57;101161.97;;;12.38;100.00
54270;BME280;40181;51.560;13.000;2023-10-08T03:59:27;101171.66;;;12.39;100.00
54270;BME280;40181;51.560;13.000;2023-10-08T04:02:00;101178.63;;;12.36;100.00
54270;BME280;40181;51.560;13.000;2023-10-08T04:04:39;101182.09;;;12.33;100.00
54270;BME280;40181;51.560;13.000;2023-10-08T04:07:18;101191.34;;;12.08;100.00
54270;BME280;40181;51.560;13.000;2023-10-08T04:10:10;101202.97;;;12.21;100.00
54270;BME280;40181;51.560;13.000;2023-10-08T04:13:07;101192.47;;;12.24;100.00
54270;BME280;40181;51.560;13.000;2023-10-08T04:15:37;101183.75;;;12.26;100.00
54270;BME280;40181;51.560;13.000;2023-10-08T04:18:06;101178.44;;;12.25;100.00
54270;BME280;40181;51.560;13.000;2023-10-08T04:20:36;101200.19;;;12.11;100.00
54270;BME280;40181;51.560;13.000;2023-10-08T04:23:24;101218.72;;;12.19;100.00
54270;BME280;40181;51.560;13.000;2023-10-08T04:25:54;101231.72;;;12.08;100.00
54270;BME280;40181;51.560;13.000;2023-10-08T04:28:26;101232.41;;;11.99;100.00
54270;BME280;40181;51.560;13.000;2023-10-08T04:30:56;101237.28;;;12.25;100.00
54270;BME280;40181;51.560;13.000;2023-10-08T04:33:28;101239.81;;;12.19;100.00
54270;BME280;40181;51.560;13.000;2023-10-08T04:35:59;101261.88;;;11.80;100.00
54270;BME280;40181;51.560;13.000;2023-10-08T04:38:32;101261.06;;;11.84;100.00
54270;BME280;40181;51.560;13.000;2023-10-08T04:41:05;101258.56;;;11.92;100.00
54270;BME280;40181;51.560;13.000;2023-10-08T04:43:39;101273.50;;;11.93;100.00
54270;BME280;40181;51.560;13.000;2023-10-08T04:46:09;101259.34;;;11.86;100.00
54270;BME280;40181;51.560;13.000;2023-10-08T04:48:59;101258.59;;;11.48;100.00
54270;BME280;40181;51.560;13.000;2023-10-08T04:51:31;101261.56;;;11.66;100.00
54270;BME280;40181;51.560;13.000;2023-10-08T04:54:09;101264.22;;;11.66;100.00
54270;BME280;40181;51.560;13.000;2023-10-08T04:56:42;101248.31;;;11.59;100.00
54270;BME280;40181;51.560;13.000;2023-10-08T04:59:17;101238.25;;;11.83;100.00
54270;BME280;40181;51.560;13.000;2023-10-08T05:01:48;101265.84;;;11.59;100.00
54270;BME280;40181;51.560;13.000;2023-10-08T05:04:37;101255.75;;;11.82;100.00
54270;BME280;40181;51.560;13.000;2023-10-08T05:07:22;101253.72;;;11.67;100.00
54270;BME280;40181;51.560;13.000;2023-10-08T05:10:04;101262.88;;;11.86;100.00
54270;BME280;40181;51.560;13.000;2023-10-08T05:12:57;101267.88;;;11.74;100.00
54270;BME280;40181;51.560;13.000;2023-10-08T05:15:43;101284.63;;;11.76;100.00
54270;BME280;40181;51.560;13.000;2023-10-08T05:18:28;101299.59;;;11.80;100.00
54270;BME280;40181;51.560;13.000;2023-10-08T05:21:19;101296.34;;;11.92;98.88
54270;BME280;40181;51.560;13.000;2023-10-08T05:24:06;101314.16;;;12.06;98.36
54270;BME280;40181;51.560;13.000;2023-10-08T05:26:39;101317.94;;;11.75;97.90
54270;BME280;40181;51.560;13.000;2023-10-08T05:29:24;101312.00;;;11.86;98.33
54270;BME280;40181;51.560;13.000;2023-10-08T05:32:17;101314.50;;;11.78;98.46
54270;BME280;40181;51.560;13.000;2023-10-08T05:35:05;101321.47;;;11.77;98.47
54270;BME280;40181;51.560;13.000;2023-10-08T05:37:47;101347.91;;;11.82;97.89
54270;BME280;40181;51.560;13.000;2023-10-08T05:40:27;101351.16;;;11.69;97.28
54270;BME280;40181;51.560;13.000;2023-10-08T05:43:31;101343.78;;;11.95;97.06
54270;BME280;40181;51.560;13.000;2023-10-08T05:46:28;101319.16;;;11.93;98.91
54270;BME280;40181;51.560;13.000;2023-10-08T05:49:13;101343.69;;;11.90;98.16
54270;BME280;40181;51.560;13.000;2023-10-08T05:52:03;101358.63;;;11.92;97.97
54270;BME280;40181;51.560;13.000;2023-10-08T05:55:07;101363.28;;;12.03;97.83
54270;BME280;40181;51.560;13.000;2023-10-08T05:57:43;101348.34;;;12.02;97.59
54270;BME280;40181;51.560;13.000;2023-10-08T06:00:20;101346.81;;;12.14;97.22
54270;BME280;40181;51.560;13.000;2023-10-08T06:03:11;101358.13;;;12.08;97.94
54270;BME280;40181;51.560;13.000;2023-10-08T06:06:03;101375.59;;;12.04;97.65
54270;BME280;40181;51.560;13.000;2023-10-08T06:08:48;101365.81;;;11.99;98.66
54270;BME280;40181;51.560;13.000;2023-10-08T06:11:34;101366.09;;;12.11;99.50
54270;BME280;40181;51.560;13.000;2023-10-08T06:14:10;101384.53;;;12.13;98.14
54270;BME280;40181;51.560;13.000;2023-10-08T06:16:56;101380.38;;;12.24;97.57
54270;BME280;40181;51.560;13.000;2023-10-08T06:19:38;101388.94;;;12.12;98.23
54270;BME280;40181;51.560;13.000;2023-10-08T06:22:08;101404.34;;;11.94;99.13
54270;BME280;40181;51.560;13.000;2023-10-08T06:24:35;101410.88;;;12.13;98.26
54270;BME280;40181;51.560;13.000;2023-10-08T06:27:04;101418.06;;;12.20;98.24
54270;BME280;40181;51.560;13.000;2023-10-08T06:29:34;101416.34;;;12.22;97.92
54270;BME280;40181;51.560;13.000;2023-10-08T06:32:12;101398.44;;;12.06;100.00
54270;BME280;40181;51.560;13.000;2023-10-08T06:34:41;101410.03;;;12.14;100.00
54270;BME280;40181;51.560;13.000;2023-10-08T06:37:10;101409.34;;;12.24;99.96
54270;BME280;40181;51.560;13.000;2023-10-08T06:39:41;101410.94;;;12.14;100.00
54270;BME280;40181;51.560;13.000;2023-10-08T06:42:15;101418.38;;;11.94;100.00
54270;BME280;40181;51.560;13.000;2023-10-08T06:44:45;101415.69;;;11.91;100.00
54270;BME280;40181;51.560;13.000;2023-10-08T06:47:20;101431.28;;;12.22;100.00
54270;BME280;40181;51.560;13.000;2023-10-08T06:49:50;101424.00;;;12.10;100.00
54270;BME280;40181;51.560;13.000;2023-10-08T06:52:19;101428.44;;;11.72;100.00
54270;BME280;40181;51.560;13.000;2023-10-08T06:54:49;101435.44;;;12.12;100.00
54270;BME280;40181;51.560;13.000;2023-10-08T06:57:18;101434.22;;;11.97;100.00
54270;BME280;40181;51.560;13.000;2023-10-08T06:59:51;101451.63;;;11.90;100.00
54270;BME280;40181;51.560;13.000;2023-10-08T07:02:23;101466.88;;;12.02;100.00
54270;BME280;40181;51.560;13.000;2023-10-08T07:04:53;101482.38;;;11.90;100.00
54270;BME280;40181;51.560;13.000;2023-10-08T07:07:22;101486.94;;;11.99;100.00
54270;BME280;40181;51.560;13.000;2023-10-08T07:09:54;101494.78;;;11.97;100.00
54270;BME280;40181;51.560;13.000;2023-10-08T07:12:24;101493.44;;;11.76;100.00
54270;BME280;40181;51.560;13.000;2023-10-08T07:14:53;101498.28;;;11.96;100.00
54270;BME280;40181;51.560;13.000;2023-10-08T07:17:26;101483.94;;;12.20;100.00
54270;BME280;40181;51.560;13.000;2023-10-08T07:20:06;101484.34;;;12.00;100.00
54270;BME280;40181;51.560;13.000;2023-10-08T07:22:39;101501.78;;;11.95;100.00
54270;BME280;40181;51.560;13.000;2023-10-08T07:25:09;101491.06;;;11.87;100.00
54270;BME280;40181;51.560;13.000;2023-10-08T07:27:40;101492.16;;;11.97;100.00
54270;BME280;40181;51.560;13.000;2023-10-08T07:30:10;101501.56;;;12.24;100.00
54270;BME280;40181;51.560;13.000;2023-10-08T07:32:54;101511.06;;;12.16;100.00
54270;BME280;40181;51.560;13.000;2023-10-08T07:35:24;101508.63;;;12.25;100.00
54270;BME280;40181;51.560;13.000;2023-10-08T07:37:55;101525.56;;;12.00;100.00
54270;BME280;40181;51.560;13.000;2023-10-08T07:40:27;101546.53;;;11.95;100.00
54270;BME280;40181;51.560;13.000;2023-10-08T07:42:58;101532.97;;;12.13;100.00
54270;BME280;40181;51.560;13.000;2023-10-08T07:45:33;101551.56;;;12.21;100.00
54270;BME280;40181;51.560;13.000;2023-10-08T07:48:06;101559.19;;;12.09;100.00
54270;BME280;40181;51.560;13.000;2023-10-08T07:50:35;101561.47;;;11.96;100.00
54270;BME280;40181;51.560;13.000;2023-10-08T07:53:11;101552.25;;;12.12;100.00
54270;BME280;40181;51.560;13.000;2023-10-08T07:55:47;101555.47;;;12.02;100.00
54270;BME280;40181;51.560;13.000;2023-10-08T07:58:17;101562.50;;;12.01;100.00
54270;BME280;40181;51.560;13.000;2023-10-08T08:00:47;101544.25;;;12.09;100.00
54270;BME280;40181;51.560;13.000;2023-10-08T08:03:24;101560.47;;;12.28;100.00
54270;BME280;40181;51.560;13.000;2023-10-08T08:05:54;101562.38;;;12.34;100.00
54270;BME280;40181;51.560;13.000;2023-10-08T08:08:21;101571.22;;;12.36;100.00
54270;BME280;40181;51.560;13.000;2023-10-08T08:10:52;101560.16;;;12.54;100.00
54270;BME280;40181;51.560;13.000;2023-10-08T08:13:23;101569.78;;;12.52;100.00
54270;BME280;40181;51.560;13.000;2023-10-08T08:15:55;101572.78;;;12.27;100.00
54270;BME280;40181;51.560;13.000;2023-10-08T08:18:37;101563.56;;;12.48;100.00
54270;BME280;40181;51.560;13.000;2023-10-08T08:21:09;101577.09;;;12.24;100.00
54270;BME280;40181;51.560;13.000;2023-10-08T08:23:41;101581.13;;;12.48;100.00
54270;BME280;40181;51.560;13.000;2023-10-08T08:26:17;101583.78;;;12.49;100.00
54270;BME280;40181;51.560;13.000;2023-10-08T08:28:55;101580.06;;;12.39;100.00
54270;BME280;40181;51.560;13.000;2023-10-08T08:31:26;101584.94;;;12.62;99.77
54270;BME280;40181;51.560;13.000;2023-10-08T08:33:59;101596.56;;;12.30;100.00
54270;BME280;40181;51.560;13.000;2023-10-08T08:36:34;101599.28;;;12.35;99.50
54270;BME280;40181;51.560;13.000;2023-10-08T08:39:04;101606.38;;;12.38;98.40
54270;BME280;40181;51.560;13.000;2023-10-08T08:41:37;101615.47;;;12.51;98.85
54270;BME280;40181;51.560;13.000;2023-10-08T08:44:06;101614.84;;;12.63;97.61
54270;BME280;40181;51.560;13.000;2023-10-08T08:46:38;101618.25;;;12.57;97.72
54270;BME280;40181;51.560;13.000;2023-10-08T08:49:10;101626.22;;;12.60;98.86
54270;BME280;40181;51.560;13.000;2023-10-08T08:51:40;101610.69;;;12.74;98.50
54270;BME280;40181;51.560;13.000;2023-10-08T08:54:14;101616.22;;;12.47;99.36
54270;BME280;40181;51.560;13.000;2023-10-08T08:56:44;101604.59;;;12.77;98.11
54270;BME280;40181;51.560;13.000;2023-10-08T08:59:13;101611.59;;;12.76;96.44
54270;BME280;40181;51.560;13.000;2023-10-08T09:01:45;101622.25;;;12.79;95.75
54270;BME280;40181;51.560;13.000;2023-10-08T09:04:27;101614.84;;;12.64;94.25
54270;BME280;40181;51.560;13.000;2023-10-08T09:06:59;101623.00;;;12.75;95.34
54270;BME280;40181;51.560;13.000;2023-10-08T09:09:32;101624.13;;;12.86;95.26
54270;BME280;40181;51.560;13.000;2023-10-08T09:12:05;101626.91;;;12.93;93.62
54270;BME280;40181;51.560;13.000;2023-10-08T09:14:36;101630.16;;;12.81;94.16
54270;BME280;40181;51.560;13.000;2023-10-08T09:17:06;101624.81;;;13.19;95.06
54270;BME280;40181;51.560;13.000;2023-10-08T09:19:39;101636.03;;;13.10;95.07
54270;BME280;40181;51.560;13.000;2023-10-08T09:22:10;101623.41;;;12.94;92.89
54270;BME280;40181;51.560;13.000;2023-10-08T09:24:41;101638.91;;;13.23;93.32
54270;BME280;40181;51.560;13.000;2023-10-08T09:27:12;101641.38;;;13.13;90.80
54270;BME280;40181;51.560;13.000;2023-10-08T09:29:43;101640.81;;;13.28;90.34
54270;BME280;40181;51.560;13.000;2023-10-08T09:32:13;101643.41;;;13.27;88.05
54270;BME280;40181;51.560;13.000;2023-10-08T09:34:51;101641.56;;;13.23;88.46
54270;BME280;40181;51.560;13.000;2023-10-08T09:37:21;101639.88;;;13.26;87.91
54270;BME280;40181;51.560;13.000;2023-10-08T09:39:51;101642.69;;;13.34;87.29
54270;BME280;40181;51.560;13.000;2023-10-08T09:42:21;101653.81;;;13.19;88.43
54270;BME280;40181;51.560;13.000;2023-10-08T09:44:51;101647.06;;;13.34;87.73
54270;BME280;40181;51.560;13.000;2023-10-08T09:47:21;101636.59;;;13.38;88.19
54270;BME280;40181;51.560;13.000;2023-10-08T09:49:57;101645.91;;;13.21;83.56
54270;BME280;40181;51.560;13.000;2023-10-08T09:52:42;101648.25;;;13.50;84.03
54270;BME280;40181;51.560;13.000;2023-10-08T09:55:18;101648.09;;;13.42;82.17
54270;BME280;40181;51.560;13.000;2023-10-08T09:57:47;101660.03;;;13.66;84.47
54270;BME280;40181;51.560;13.000;2023-10-08T10:00:17;101661.63;;;13.59;83.03
54270;BME280;40181;51.560;13.000;2023-10-08T10:02:57;101668.31;;;13.41;84.75
54270;BME280;40181;51.560;13.000;2023-10-08T10:05:33;101668.13;;;13.32;84.73
54270;BME280;40181;51.560;13.000;2023-10-08T10:08:02;101661.66;;;13.16;84.58
54270;BME280;40181;51.560;13.000;2023-10-08T10:10:36;101667.16;;;13.27;83.94
54270;BME280;40181;51.560;13.000;2023-10-08T10:13:14;101682.00;;;13.20;81.14
54270;BME280;40181;51.560;13.000;2023-10-08T10:15:47;101682.09;;;13.25;81.90
54270;BME280;40181;51.560;13.000;2023-10-08T10:18:27;101680.41;;;13.30;81.02
54270;BME280;40181;51.560;13.000;2023-10-08T10:21:00;101689.47;;;13.43;79.28
54270;BME280;40181;51.560;13.000;2023-10-08T10:23:53;101687.94;;;13.54;79.22
54270;BME280;40181;51.560;13.000;2023-10-08T10:26:25;101687.84;;;13.48;78.00
54270;BME280;40181;51.560;13.000;2023-10-08T10:29:22;101685.69;;;13.75;78.58
54270;BME280;40181;51.560;13.000;2023-10-08T10:31:58;101704.97;;;13.69;80.83
54270;BME280;40181;51.560;13.000;2023-10-08T10:34:29;101688.50;;;13.82;81.50
54270;BME280;40181;51.560;13.000;2023-10-08T10:37:03;101689.69;;;13.52;79.51
54270;BME280;40181;51.560;13.000;2023-10-08T10:39:50;101693.94;;;13.93;81.59
54270;BME280;40181;51.560;13.000;2023-10-08T10:42:24;101696.75;;;14.03;74.44
54270;BME280;40181;51.560;13.000;2023-10-08T10:44:55;101704.38;;;14.38;74.21
54270;BME280;40181;51.560;13.000;2023-10-08T10:47:24;101698.84;;;14.22;71.80
54270;BME280;40181;51.560;13.000;2023-10-08T10:50:08;101705.16;;;14.32;72.72
54270;BME280;40181;51.560;13.000;2023-10-08T10:52:52;101716.00;;;14.49;73.62
54270;BME280;40181;51.560;13.000;2023-10-08T10:55:22;101705.28;;;14.40;72.64
54270;BME280;40181;51.560;13.000;2023-10-08T10:57:59;101719.09;;;14.76;73.70
54270;BME280;40181;51.560;13.000;2023-10-08T11:00:37;101723.38;;;14.71;73.76
54270;BME280;40181;51.560;13.000;2023-10-08T11:03:23;101725.97;;;14.64;73.82
54270;BME280;40181;51.560;13.000;2023-10-08T11:05:53;101721.41;;;14.56;73.68
54270;BME280;40181;51.560;13.000;2023-10-08T11:08:27;101701.78;;;14.98;75.94
54270;BME280;40181;51.560;13.000;2023-10-08T11:11:00;101711.75;;;15.21;70.95
54270;BME280;40181;51.560;13.000;2023-10-08T11:13:35;101704.78;;;15.29;69.01
54270;BME280;40181;51.560;13.000;2023-10-08T11:16:17;101707.69;;;14.78;64.42
54270;BME280;40181;51.560;13.000;2023-10-08T11:18:47;101701.50;;;14.81;64.58
54270;BME280;40181;51.560;13.000;2023-10-08T11:21:17;101709.38;;;14.75;65.66
54270;BME280;40181;51.560;13.000;2023-10-08T11:23:52;101697.22;;;14.89;66.53
54270;BME280;40181;51.560;13.000;2023-10-08T11:26:25;101707.50;;;14.69;66.67
54270;BME280;40181;51.560;13.000;2023-10-08T11:29:05;101704.53;;;14.46;66.26
54270;BME280;40181;51.560;13.000;2023-10-08T11:31:40;101695.44;;;14.28;67.21
54270;BME280;40181;51.560;13.000;2023-10-08T11:34:11;101700.75;;;14.31;66.70
54270;BME280;40181;51.560;13.000;2023-10-08T11:36:45;101705.22;;;14.34;67.23
54270;BME280;40181;51.560;13.000;2023-10-08T11:39:23;101697.34;;;14.40;66.91
54270;BME280;40181;51.560;13.000;2023-10-08T11:41:56;101703.91;;;14.64;64.37
54270;BME280;40181;51.560;13.000;2023-10-08T11:44:29;101690.16;;;14.88;64.09
54270;BME280;40181;51.560;13.000;2023-10-08T11:47:01;101690.91;;;14.78;64.68
54270;BME280;40181;51.560;13.000;2023-10-08T11:49:37;101684.84;;;14.85;62.11
54270;BME280;40181;51.560;13.000;2023-10-08T11:52:12;101687.16;;;15.27;63.45
54270;BME280;40181;51.560;13.000;2023-10-08T11:54:47;101681.53;;;15.03;62.43
54270;BME280;40181;51.560;13.000;2023-10-08T11:57:18;101693.59;;;14.79;63.47
54270;BME280;40181;51.560;13.000;2023-10-08T11:59:47;101684.34;;;15.16;62.76
54270;BME280;40181;51.560;13.000;2023-10-08T12:02:19;101678.75;;;15.67;61.69
54270;BME280;40181;51.560;13.000;2023-10-08T12:04:48;101680.94;;;15.26;62.83
54270;BME280;40181;51.560;13.000;2023-10-08T12:07:17;101674.13;;;15.48;62.79
54270;BME280;40181;51.560;13.000;2023-10-08T12:09:55;101675.13;;;15.60;60.41
54270;BME280;40181;51.560;13.000;2023-10-08T12:12:24;101676.09;;;15.68;59.27
54270;BME280;40181;51.560;13.000;2023-10-08T12:14:56;101680.66;;;15.82;59.96
54270;BME280;40181;51.560;13.000;2023-10-08T12:17:28;101688.34;;;15.57;59.99
54270;BME280;40181;51.560;13.000;2023-10-08T12:20:06;101694.31;;;16.27;60.71
54270;BME280;40181;51.560;13.000;2023-10-08T12:22:48;101687.03;;;16.01;58.47
54270;BME280;40181;51.560;13.000;2023-10-08T12:25:20;101683.03;;;16.54;57.76
54270;BME280;40181;51.560;13.000;2023-10-08T12:27:49;101663.72;;;15.67;56.59
54270;BME280;40181;51.560;13.000;2023-10-08T12:30:18;101654.34;;;16.02;57.19
54270;BME280;40181;51.560;13.000;2023-10-08T12:32:55;101654.78;;;16.61;57.51
54270;BME280;40181;51.560;13.000;2023-10-08T12:35:26;101660.13;;;16.70;57.59
54270;BME280;40181;51.560;13.000;2023-10-08T12:37:55;101652.81;;;16.34;56.22
54270;BME280;40181;51.560;13.000;2023-10-08T12:40:28;101651.38;;;16.82;57.87
54270;BME280;40181;51.560;13.000;2023-10-08T12:43:07;101646.84;;;16.66;55.78
54270;BME280;40181;51.560;13.000;2023-10-08T12:45:37;101646.56;;;16.19;55.66
54270;BME280;40181;51.560;13.000;2023-10-08T12:48:06;101629.25;;;16.83;56.08
54270;BME280;40181;51.560;13.000;2023-10-08T12:50:35;101628.41;;;16.95;56.79
54270;BME280;40181;51.560;13.000;2023-10-08T12:53:10;101614.34;;;17.15;55.49
54270;BME280;40181;51.560;13.000;2023-10-08T12:55:43;101607.34;;;17.34;55.11
54270;BME280;40181;51.560;13.000;2023-10-08T12:58:15;101616.13;;;17.16;54.02
54270;BME280;40181;51.560;13.000;2023-10-08T13:00:44;101617.78;;;16.89;54.61
54270;BME280;40181;51.560;13.000;2023-10-08T13:03:20;101625.84;;;17.05;54.17
54270;BME280;40181;51.560;13.000;2023-10-08T13:05:51;101619.69;;;17.17;56.65
54270;BME280;40181;51.560;13.000;2023-10-08T13:08:29;101623.81;;;16.57;55.82
54270;BME280;40181;51.560;13.000;2023-10-08T13:11:01;101612.34;;;16.66;57.34
54270;BME280;40181;51.560;13.000;2023-10-08T13:13:31;101612.63;;;17.23;56.92